Time;durP1;ratioP1;P1;durP2;ratioP2;P2;SDS_P1;SDS_P2;PMS_P1;PMS_P2;Temp;Humidity;BMP_temperature;BMP_pressure;BME280_temperature;BME280_humidity;BME280_pressure;Samples;Min_cycle;Max_cycle;Signal;HPM_P1;HPM_P2
2022/08/18 00:00:54;;;;;;;12.73;5.70;;;18.90;99.90;;;;;;5081561;28;20058;-36
2022/08/18 00:03:19;;;;;;;14.55;6.65;;;18.90;99.90;;;;;;5081841;28;20036;-36
2022/08/18 00:05:45;;;;;;;20.00;7.10;;;18.90;99.90;;;;;;5086762;28;20469;-36
2022/08/18 00:08:11;;;;;;;9.55;6.20;;;18.90;99.90;;;;;;5085979;28;20033;-37
2022/08/18 00:10:40;;;;;;;14.07;6.07;;;18.90;99.90;;;;;;5079208;28;20036;-35
2022/08/18 00:13:05;;;;;;;13.82;6.70;;;18.90;99.90;;;;;;5081266;28;20115;-35
2022/08/18 00:15:31;;;;;;;14.32;6.30;;;18.90;99.90;;;;;;5088607;28;20142;-35
2022/08/18 00:17:57;;;;;;;15.68;6.60;;;18.90;99.90;;;;;;5079854;28;20056;-35
2022/08/18 00:20:23;;;;;;;13.43;6.32;;;18.90;99.90;;;;;;5084784;28;20035;-35
2022/08/18 00:22:50;;;;;;;18.50;7.10;;;18.90;99.90;;;;;;5084381;28;20038;-35
2022/08/18 00:25:18;;;;;;;16.70;6.57;;;18.90;99.90;;;;;;5083167;28;20028;-36
2022/08/18 00:27:43;;;;;;;20.55;7.45;;;18.90;99.90;;;;;;5087925;28;20100;-35
2022/08/18 00:30:17;;;;;;;15.80;6.25;;;18.90;99.90;;;;;;5087050;28;20048;-35
2022/08/18 00:33:02;;;;;;;16.25;7.20;;;18.90;99.90;;;;;;5084053;28;20040;-35
2022/08/18 00:35:32;;;;;;;16.77;7.75;;;18.90;99.90;;;;;;5078593;28;20058;-36
2022/08/18 00:38:00;;;;;;;15.07;6.45;;;19.00;99.90;;;;;;5079583;28;20040;-35
2022/08/18 00:40:29;;;;;;;17.20;6.63;;;18.90;99.90;;;;;;5079163;28;20070;-36
2022/08/18 00:42:58;;;;;;;18.25;6.80;;;19.00;99.90;;;;;;5079076;28;20031;-36
2022/08/18 00:45:32;;;;;;;11.65;6.25;;;19.00;99.90;;;;;;5078256;28;20032;-36
2022/08/18 00:47:59;;;;;;;15.02;7.10;;;19.00;99.90;;;;;;5084691;28;20036;-36
2022/08/18 00:50:33;;;;;;;14.55;7.40;;;19.00;99.90;;;;;;5082286;28;20048;-36
2022/08/18 00:53:05;;;;;;;12.80;5.60;;;19.00;99.90;;;;;;5076421;28;20036;-36
2022/08/18 00:55:32;;;;;;;;;;;19.00;99.90;;;;;;5085370;28;20036;-37
2022/08/18 00:58:05;;;;;;;15.35;6.80;;;19.00;99.90;;;;;;5081575;28;19921;-36
2022/08/18 01:00:32;;;;;;;10.80;5.55;;;19.00;99.90;;;;;;5078205;28;20148;-35
2022/08/18 01:03:02;;;;;;;14.10;6.55;;;19.00;99.90;;;;;;5086903;28;20040;-36
2022/08/18 01:05:36;;;;;;;11.45;6.10;;;19.00;99.90;;;;;;5080420;28;20040;-36
2022/08/18 01:08:03;;;;;;;10.60;5.60;;;19.00;99.90;;;;;;5085114;28;20473;-36
2022/08/18 01:10:33;;;;;;;11.60;5.75;;;19.00;99.90;;;;;;5078460;28;20122;-36
2022/08/18 01:12:58;;;;;;;14.15;6.65;;;19.00;99.90;;;;;;5082732;28;20512;-36
2022/08/18 01:15:27;;;;;;;11.40;6.75;;;19.00;99.90;;;;;;5082619;28;20036;-35
2022/08/18 01:24:05;;;;;;;12.13;5.75;;;18.90;99.90;;;;;;5075482;28;20067;-36
2022/08/18 01:26:36;;;;;;;15.05;7.90;;;18.90;99.90;;;;;;5083436;28;20637;-36
2022/08/18 01:29:10;;;;;;;10.55;5.25;;;18.90;99.90;;;;;;5081880;28;20115;-35
2022/08/18 01:31:48;;;;;;;13.65;6.63;;;18.90;99.90;;;;;;5079299;28;20040;-35
2022/08/18 01:34:15;;;;;;;13.45;6.88;;;18.90;99.90;;;;;;5083806;28;20078;-35
2022/08/18 01:36:41;;;;;;;11.77;5.78;;;18.90;99.90;;;;;;5082391;28;20111;-35
2022/08/18 01:39:10;;;;;;;14.18;5.72;;;18.90;99.90;;;;;;5082667;28;20036;-35
2022/08/18 01:41:37;;;;;;;12.20;5.90;;;18.90;99.90;;;;;;5081001;28;20068;-35
2022/08/18 01:44:04;;;;;;;12.75;6.53;;;18.90;99.90;;;;;;5074232;28;20076;-35
2022/08/18 01:46:32;;;;;;;10.25;6.18;;;18.90;99.90;;;;;;5079851;28;20033;-35
2022/08/18 01:48:59;;;;;;;17.60;6.93;;;18.90;99.90;;;;;;5075486;28;20047;-36
2022/08/18 01:51:26;;;;;;;12.30;5.75;;;18.90;99.90;;;;;;5078859;28;20048;-36
2022/08/18 01:53:53;;;;;;;11.60;6.57;;;18.90;99.90;;;;;;5073543;28;20122;-36
2022/08/18 01:56:18;;;;;;;14.52;6.97;;;18.90;99.90;;;;;;5082956;28;20594;-36
2022/08/18 01:58:46;;;;;;;12.52;6.63;;;18.90;99.90;;;;;;5080874;28;20040;-36
2022/08/18 02:01:14;;;;;;;15.60;6.78;;;18.90;99.90;;;;;;5076446;28;20058;-35
2022/08/18 02:03:45;;;;;;;15.25;6.65;;;18.90;99.90;;;;;;5081730;28;20089;-36
2022/08/18 02:06:13;;;;;;;14.63;7.22;;;18.90;99.90;;;;;;5082979;28;20081;-35
2022/08/18 02:08:39;;;;;;;13.55;7.05;;;18.90;99.90;;;;;;5079827;28;20108;-35
2022/08/18 02:11:06;;;;;;;12.40;7.13;;;18.90;99.90;;;;;;5079346;28;20834;-36
2022/08/18 02:13:33;;;;;;;14.00;6.88;;;18.90;99.90;;;;;;5075250;28;20032;-36
2022/08/18 02:16:00;;;;;;;12.27;7.13;;;18.90;99.90;;;;;;5082745;28;20048;-36
2022/08/18 02:18:29;;;;;;;10.18;5.18;;;18.90;99.90;;;;;;5080142;28;20048;-36
2022/08/18 02:20:57;;;;;;;12.13;5.93;;;18.90;99.90;;;;;;5078447;28;20092;-35
2022/08/18 02:23:23;;;;;;;9.68;5.65;;;18.90;99.90;;;;;;5074966;28;20062;-35
2022/08/18 02:25:49;;;;;;;15.25;7.57;;;18.90;99.90;;;;;;5078626;28;20036;-36
2022/08/18 02:28:15;;;;;;;10.23;6.07;;;18.90;99.90;;;;;;5082682;28;20101;-36
2022/08/18 02:30:41;;;;;;;12.68;7.20;;;18.90;99.90;;;;;;5082862;28;20113;-36
2022/08/18 02:33:09;;;;;;;12.57;6.57;;;18.80;99.90;;;;;;5082190;28;20044;-35
2022/08/18 02:35:36;;;;;;;11.48;6.35;;;18.80;99.90;;;;;;5079888;28;20044;-36
2022/08/18 02:38:04;;;;;;;18.48;8.32;;;18.80;99.90;;;;;;5083084;28;20110;-36
2022/08/18 02:40:31;;;;;;;14.57;7.32;;;18.80;99.90;;;;;;5081597;28;20115;-35
2022/08/18 02:42:57;;;;;;;11.68;7.32;;;18.70;99.90;;;;;;5079365;28;20040;-36
2022/08/18 02:45:23;;;;;;;16.48;7.85;;;18.70;99.90;;;;;;5079239;28;20393;-36
2022/08/18 02:47:52;;;;;;;13.75;7.65;;;18.70;99.90;;;;;;5082880;28;20125;-36
2022/08/18 02:50:18;;;;;;;11.02;6.35;;;18.70;99.90;;;;;;5083954;28;20039;-43
2022/08/18 02:52:44;;;;;;;12.95;7.68;;;18.70;99.90;;;;;;5078155;28;20044;-36
2022/08/18 02:55:10;;;;;;;14.13;7.15;;;18.70;99.90;;;;;;5076644;28;20037;-36
2022/08/18 02:57:44;;;;;;;14.10;7.15;;;18.70;99.90;;;;;;5080881;28;20131;-35
2022/08/18 03:00:13;;;;;;;15.60;7.20;;;18.80;99.90;;;;;;5073891;28;20116;-36
2022/08/18 03:02:39;;;;;;;11.38;7.13;;;18.80;99.90;;;;;;5080814;28;20497;-35
2022/08/18 03:05:06;;;;;;;14.90;7.88;;;18.80;99.90;;;;;;5074847;28;20036;-35
2022/08/18 03:07:32;;;;;;;17.33;8.20;;;18.80;99.90;;;;;;5082883;28;20225;-35
2022/08/18 03:09:57;;;;;;;14.18;6.43;;;18.80;99.90;;;;;;5080960;28;20040;-36
2022/08/18 03:12:24;;;;;;;13.63;7.82;;;18.80;99.90;;;;;;5077831;28;20058;-35
2022/08/18 03:14:49;;;;;;;8.57;6.05;;;18.80;99.90;;;;;;5081099;28;20109;-35
2022/08/18 03:17:15;;;;;;;18.33;7.80;;;18.80;99.90;;;;;;5076387;28;20111;-35
2022/08/18 03:19:43;;;;;;;15.32;8.10;;;18.80;99.90;;;;;;5079449;28;20501;-36
2022/08/18 03:22:09;;;;;;;16.70;7.63;;;18.80;99.90;;;;;;5078405;28;20567;-36
2022/08/18 03:24:35;;;;;;;12.40;7.88;;;18.80;99.90;;;;;;5081501;28;20107;-36
2022/08/18 03:27:05;;;;;;;12.00;7.43;;;18.80;99.90;;;;;;5079059;28;20044;-36
2022/08/18 03:29:30;;;;;;;13.70;8.38;;;18.80;99.90;;;;;;5080632;28;20081;-36
2022/08/18 03:31:56;;;;;;;10.77;7.43;;;18.70;99.90;;;;;;5085163;28;20040;-35
2022/08/18 03:34:21;;;;;;;19.25;9.10;;;18.70;99.90;;;;;;5088631;28;20041;-36
2022/08/18 03:36:49;;;;;;;11.95;7.55;;;18.70;99.90;;;;;;5086902;28;20497;-36
2022/08/18 03:39:16;;;;;;;15.15;8.77;;;18.70;99.90;;;;;;5080534;28;20032;-35
2022/08/18 03:41:44;;;;;;;14.63;8.50;;;18.70;99.90;;;;;;5085381;28;20544;-36
2022/08/18 03:44:11;;;;;;;13.20;7.10;;;18.70;99.90;;;;;;5082786;28;20044;-35
2022/08/18 03:46:38;;;;;;;13.45;6.90;;;18.70;99.90;;;;;;5079277;28;20036;-35
2022/08/18 03:49:04;;;;;;;12.07;7.60;;;18.70;99.90;;;;;;5084852;28;20036;-36
2022/08/18 03:51:31;;;;;;;13.93;7.20;;;18.70;99.90;;;;;;5084501;28;20042;-37
2022/08/18 03:53:59;;;;;;;19.10;6.95;;;18.70;99.90;;;;;;5083131;28;20047;-36
2022/08/18 03:56:35;;;;;;;14.68;7.28;;;18.70;99.90;;;;;;5084609;28;20108;-35
2022/08/18 03:59:08;;;;;;;13.82;7.50;;;18.70;99.90;;;;;;5079919;28;20043;-35
2022/08/18 04:01:38;;;;;;;16.38;7.35;;;18.70;99.90;;;;;;5078489;28;20043;-35
2022/08/18 04:04:07;;;;;;;16.08;7.88;;;18.70;99.90;;;;;;5087013;28;20044;-36
2022/08/18 04:06:39;;;;;;;15.20;7.22;;;18.70;99.90;;;;;;5081441;28;20040;-36
2022/08/18 04:09:07;;;;;;;;;;;18.70;99.90;;;;;;5085082;28;20044;-36
2022/08/18 04:11:35;;;;;;;12.85;7.18;;;18.70;99.90;;;;;;5076122;28;19931;-36
2022/08/18 04:14:01;;;;;;;9.07;6.10;;;18.70;99.90;;;;;;5083962;28;20490;-36
2022/08/18 04:16:28;;;;;;;14.15;7.88;;;18.70;99.90;;;;;;5083017;28;20036;-36
2022/08/18 04:18:58;;;;;;;13.38;7.82;;;18.70;99.90;;;;;;5079801;28;20044;-36
2022/08/18 04:21:24;;;;;;;12.95;8.15;;;18.70;99.90;;;;;;5079649;28;20413;-36
2022/08/18 04:23:50;;;;;;;21.83;8.73;;;18.70;99.90;;;;;;5080236;28;20165;-36
2022/08/18 04:26:17;;;;;;;10.57;6.55;;;18.70;99.90;;;;;;5084955;28;20071;-37
2022/08/18 04:28:43;;;;;;;12.35;7.63;;;18.80;99.90;;;;;;5084057;28;20041;-36
2022/08/18 04:31:13;;;;;;;11.00;7.40;;;18.80;99.90;;;;;;5080205;28;20122;-36
2022/08/18 04:33:39;;;;;;;16.20;8.65;;;18.80;99.90;;;;;;5082060;28;20072;-36
2022/08/18 04:36:12;;;;;;;13.48;7.45;;;18.80;99.90;;;;;;5084371;28;20558;-37
2022/08/18 04:38:40;;;;;;;13.68;8.07;;;18.80;99.90;;;;;;5080464;28;20392;-37
2022/08/18 04:41:07;;;;;;;11.20;6.53;;;18.80;99.90;;;;;;5082465;28;20291;-36
2022/08/18 04:43:33;;;;;;;15.75;8.43;;;18.80;99.90;;;;;;5079620;28;20129;-36
2022/08/18 04:46:00;;;;;;;13.05;8.05;;;18.80;99.90;;;;;;5084028;28;20439;-36
2022/08/18 04:48:37;;;;;;;15.10;7.32;;;18.80;99.90;;;;;;5086200;28;20520;-36
2022/08/18 04:51:17;;;;;;;14.00;7.43;;;18.80;99.90;;;;;;5081724;28;20119;-37
2022/08/18 04:53:43;;;;;;;11.45;7.05;;;18.80;99.90;;;;;;5082245;28;20036;-36
2022/08/18 04:56:25;;;;;;;12.38;7.60;;;18.80;99.90;;;;;;5081962;28;20043;-36
2022/08/18 04:59:03;;;;;;;11.35;7.43;;;18.80;99.90;;;;;;5080322;28;20051;-36
2022/08/18 05:01:32;;;;;;;12.45;6.88;;;18.70;99.90;;;;;;5080763;28;20482;-36
2022/08/18 05:03:58;;;;;;;11.73;7.35;;;18.70;99.90;;;;;;5080522;28;20068;-36
2022/08/18 05:06:26;;;;;;;11.63;6.70;;;18.80;99.90;;;;;;5077705;28;20071;-35
2022/08/18 05:08:55;;;;;;;12.15;8.05;;;18.80;99.90;;;;;;5083529;28;20079;-35
2022/08/18 05:11:23;;;;;;;10.15;7.10;;;18.80;99.90;;;;;;5080666;28;20044;-35
2022/08/18 05:13:51;;;;;;;13.73;7.68;;;18.80;99.90;;;;;;5081633;28;21739;-35
2022/08/18 05:16:16;;;;;;;14.57;7.63;;;18.80;99.90;;;;;;5079317;28;20044;-35
2022/08/18 05:18:42;;;;;;;18.85;7.85;;;18.70;99.90;;;;;;5077973;28;20125;-36
2022/08/18 05:21:15;;;;;;;12.68;7.25;;;18.80;99.90;;;;;;5081750;28;20040;-35
2022/08/18 05:23:42;;;;;;;11.55;7.28;;;18.70;99.90;;;;;;5080016;28;20511;-36
2022/08/18 05:26:08;;;;;;;10.07;6.75;;;18.70;99.90;;;;;;5075423;28;20530;-36
2022/08/18 05:28:35;;;;;;;16.88;8.65;;;18.70;99.90;;;;;;5079596;28;20534;-36
2022/08/18 05:31:11;;;;;;;12.82;6.13;;;18.70;99.90;;;;;;5077192;28;20123;-37
2022/08/18 05:33:41;;;;;;;14.20;6.70;;;18.70;99.90;;;;;;5082961;28;20055;-36
2022/08/18 05:36:26;;;;;;;10.25;6.97;;;18.70;99.90;;;;;;5075007;28;20093;-36
2022/08/18 05:38:57;;;;;;;12.55;7.70;;;18.70;99.90;;;;;;5079303;28;20068;-36
2022/08/18 05:41:34;;;;;;;10.02;6.30;;;18.70;99.90;;;;;;5080327;28;20089;-35
2022/08/18 05:44:01;;;;;;;8.07;5.82;;;18.70;99.90;;;;;;5076604;28;20119;-35
2022/08/18 05:46:33;;;;;;;10.57;6.10;;;18.80;99.90;;;;;;5079298;28;20028;-35
2022/08/18 05:48:59;;;;;;;8.63;4.90;;;18.80;99.90;;;;;;5082340;28;20043;-35
2022/08/18 05:51:35;;;;;;;7.60;5.68;;;18.80;99.90;;;;;;5076659;28;20048;-36
2022/08/18 05:56:51;;;;;;;10.25;5.80;;;18.90;99.90;;;;;;5076279;28;20048;-36
2022/08/18 05:59:33;;;;;;;11.05;5.70;;;19.00;99.90;;;;;;5077415;28;20611;-36
2022/08/18 06:02:06;;;;;;;10.13;6.30;;;19.00;99.90;;;;;;5073322;28;20035;-36
2022/08/18 06:04:42;;;;;;;9.43;4.78;;;19.00;99.90;;;;;;5082838;28;20066;-36
2022/08/18 06:07:12;;;;;;;7.78;5.53;;;19.00;99.90;;;;;;5076143;28;20512;-36
2022/08/18 06:09:50;;;;;;;10.35;5.03;;;19.00;99.90;;;;;;5082094;28;20025;-36
2022/08/18 06:12:50;;;;;;;11.55;5.13;;;19.00;99.90;;;;;;5072235;28;20086;-36
2022/08/18 06:15:30;;;;;;;8.85;5.93;;;19.00;99.90;;;;;;5076794;28;20040;-36
2022/08/18 06:18:26;;;;;;;8.25;4.57;;;19.00;99.90;;;;;;5075562;28;20529;-36
2022/08/18 06:21:28;;;;;;;8.00;5.00;;;19.10;99.90;;;;;;5078472;28;20565;-36
2022/08/18 06:24:39;;;;;;;9.18;5.03;;;19.10;99.90;;;;;;5075976;28;20036;-36
2022/08/18 06:27:38;;;;;;;9.30;5.38;;;19.10;99.90;;;;;;5075882;28;20032;-36
2022/08/18 06:30:24;;;;;;;9.55;6.53;;;19.10;99.90;;;;;;5080349;28;20043;-36
2022/08/18 06:33:19;;;;;;;11.90;5.97;;;19.10;99.90;;;;;;5074152;28;20477;-36
2022/08/18 06:35:49;;;;;;;9.75;6.28;;;19.10;99.90;;;;;;5075989;28;21984;-36
2022/08/18 06:38:39;;;;;;;16.35;6.72;;;19.20;99.90;;;;;;5078677;28;20032;-36
2022/08/18 06:41:20;;;;;;;10.40;6.10;;;19.20;99.90;;;;;;5073806;28;20036;-36
2022/08/18 06:43:57;;;;;;;12.43;6.28;;;19.30;99.90;;;;;;5077896;28;20468;-35
2022/08/18 06:46:53;;;;;;;13.02;6.85;;;19.20;99.90;;;;;;5070708;28;20541;-36
2022/08/18 06:49:45;;;;;;;12.50;7.05;;;19.30;99.90;;;;;;5072441;28;20079;-35
2022/08/18 06:52:25;;;;;;;12.73;5.85;;;19.20;99.90;;;;;;5074105;28;20048;-36
2022/08/18 06:54:53;;;;;;;10.80;6.65;;;19.30;99.90;;;;;;5077599;28;20613;-35
2022/08/18 06:57:34;;;;;;;14.15;7.13;;;19.40;99.90;;;;;;5077763;28;20101;-36
2022/08/18 07:00:22;;;;;;;11.07;6.38;;;19.40;99.90;;;;;;5074780;28;20101;-36
2022/08/18 07:02:57;;;;;;;15.02;6.93;;;19.50;99.90;;;;;;5081916;28;20101;-35
2022/08/18 07:05:26;;;;;;;11.93;6.60;;;19.50;99.90;;;;;;5086831;28;20051;-36
2022/08/18 07:08:00;;;;;;;14.20;7.45;;;19.60;99.90;;;;;;5082845;28;20482;-36
2022/08/18 07:10:47;;;;;;;10.82;6.75;;;19.70;99.90;;;;;;5080103;28;20044;-35
2022/08/18 07:13:25;;;;;;;10.57;6.63;;;19.80;99.90;;;;;;5083209;28;20040;-36
2022/08/18 07:16:13;;;;;;;14.35;6.90;;;19.80;99.90;;;;;;5083049;28;20607;-35
2022/08/18 07:18:39;;;;;;;11.25;5.97;;;19.90;99.90;;;;;;5080656;28;20500;-36
2022/08/18 07:21:05;;;;;;;9.77;5.10;;;19.90;99.90;;;;;;5079344;28;20182;-36
2022/08/18 07:23:39;;;;;;;12.38;5.38;;;20.00;99.90;;;;;;5075873;28;20033;-35
2022/08/18 07:26:10;;;;;;;9.93;5.40;;;20.00;99.90;;;;;;5076984;28;20032;-36
2022/08/18 07:28:49;;;;;;;9.32;4.88;;;20.10;99.90;;;;;;5087123;28;20040;-37
2022/08/18 07:31:15;;;;;;;6.75;4.55;;;20.20;99.90;;;;;;5082645;28;20036;-36
2022/08/18 07:33:44;;;;;;;11.02;5.50;;;20.30;99.90;;;;;;5077593;28;20047;-36
2022/08/18 07:36:12;;;;;;;9.15;5.10;;;20.40;99.90;;;;;;5083357;28;20046;-35
2022/08/18 07:38:45;;;;;;;8.38;4.63;;;20.40;99.90;;;;;;5079168;28;20397;-36
2022/08/18 07:41:19;;;;;;;7.05;4.15;;;20.50;99.90;;;;;;5082167;28;20151;-35
2022/08/18 07:43:50;;;;;;;7.03;4.50;;;20.50;99.90;;;;;;5078368;28;20038;-36
2022/08/18 07:46:49;;;;;;;7.60;4.23;;;20.60;99.90;;;;;;5079186;28;20043;-36
2022/08/18 07:49:19;;;;;;;9.52;4.38;;;20.60;99.90;;;;;;5082379;28;20501;-36
2022/08/18 07:51:49;;;;;;;6.60;4.20;;;20.60;99.90;;;;;;5082350;28;20040;-36
2022/08/18 07:54:33;;;;;;;7.57;3.95;;;20.60;99.90;;;;;;5085734;28;20040;-36
2022/08/18 07:57:28;;;;;;;11.07;3.65;;;20.70;99.90;;;;;;5077312;28;20036;-35
2022/08/18 08:00:13;;;;;;;6.82;3.67;;;20.90;99.90;;;;;;5075077;28;20505;-36
2022/08/18 08:02:47;;;;;;;9.95;3.90;;;21.00;99.90;;;;;;5079045;28;20040;-36
2022/08/18 08:06:03;;;;;;;9.63;3.95;;;21.00;99.90;;;;;;5086959;28;20090;-36
2022/08/18 08:08:38;;;;;;;6.50;3.30;;;21.20;99.90;;;;;;5086947;28;20047;-36
2022/08/18 08:11:26;;;;;;;6.22;3.60;;;21.30;99.90;;;;;;5074591;28;20044;-36
2022/08/18 08:14:05;;;;;;;5.80;3.10;;;21.40;99.90;;;;;;5089708;28;20052;-36
2022/08/18 08:16:37;;;;;;;7.55;3.88;;;21.60;99.90;;;;;;5088915;28;20489;-36
2022/08/18 08:19:26;;;;;;;6.57;3.67;;;21.60;99.90;;;;;;5081263;28;20091;-36
2022/08/18 08:22:18;;;;;;;8.10;3.45;;;21.70;99.90;;;;;;5081755;28;20036;-36
2022/08/18 08:25:03;;;;;;;7.00;3.22;;;21.70;99.90;;;;;;5080186;28;20481;-36
2022/08/18 08:27:37;;;;;;;9.00;3.45;;;21.70;99.90;;;;;;5076123;28;20136;-35
2022/08/18 08:30:24;;;;;;;4.55;3.28;;;21.70;99.90;;;;;;5079227;28;20028;-35
2022/08/18 08:33:22;;;;;;;8.10;2.78;;;21.60;99.90;;;;;;5085910;28;20113;-35
2022/08/18 08:36:06;;;;;;;7.88;3.20;;;21.70;99.90;;;;;;5079634;28;20119;-36
2022/08/18 08:38:52;;;;;;;3.90;2.60;;;22.00;99.90;;;;;;5076575;28;20062;-36
2022/08/18 08:41:31;;;;;;;6.13;3.38;;;22.10;99.90;;;;;;5080574;28;20032;-35
2022/08/18 08:44:25;;;;;;;7.47;3.08;;;22.20;99.90;;;;;;5081785;28;20572;-35
2022/08/18 08:47:01;;;;;;;4.90;2.70;;;22.00;99.90;;;;;;5077802;28;20040;-35
2022/08/18 08:49:39;;;;;;;5.68;2.38;;;22.00;99.90;;;;;;5083185;28;20409;-36
2022/08/18 08:52:17;;;;;;;5.20;2.58;;;21.90;99.90;;;;;;5085948;28;20048;-35
2022/08/18 08:54:49;;;;;;;6.00;2.05;;;21.90;99.90;;;;;;5077191;28;20097;-36
2022/08/18 08:57:16;;;;;;;4.43;2.17;;;21.80;99.90;;;;;;5081122;28;20048;-35
2022/08/18 08:59:46;;;;;;;4.35;2.03;;;21.80;99.90;;;;;;5086634;28;20058;-36
2022/08/18 09:02:39;;;;;;;4.53;1.98;;;22.00;99.90;;;;;;5078021;28;20036;-36
2022/08/18 09:05:40;;;;;;;5.93;1.92;;;22.00;99.90;;;;;;5083326;28;20061;-36
2022/08/18 09:08:27;;;;;;;3.15;1.55;;;22.00;99.90;;;;;;5079925;28;20047;-36
2022/08/18 09:11:20;;;;;;;3.80;1.70;;;22.00;99.90;;;;;;5082040;28;20051;-36
2022/08/18 09:14:15;;;;;;;4.32;2.15;;;22.30;99.90;;;;;;5081114;28;20075;-36
2022/08/18 09:17:08;;;;;;;4.07;2.00;;;22.50;99.90;;;;;;5079646;28;20082;-36
2022/08/18 09:19:53;;;;;;;3.42;1.77;;;22.70;99.90;;;;;;5081382;28;20048;-36
2022/08/18 09:22:47;;;;;;;5.00;2.30;;;22.90;99.90;;;;;;5077752;28;20040;-36
2022/08/18 09:25:41;;;;;;;6.43;2.70;;;22.90;99.90;;;;;;5080380;28;20040;-36
2022/08/18 09:28:28;;;;;;;4.32;2.00;;;22.80;99.90;;;;;;5079292;28;20044;-36
2022/08/18 09:31:16;;;;;;;5.72;1.48;;;22.70;99.90;;;;;;5080335;28;20842;-36
2022/08/18 09:33:50;;;;;;;3.22;1.15;;;22.60;99.90;;;;;;5080415;28;20044;-35
2022/08/18 09:36:41;;;;;;;4.07;1.10;;;22.50;99.90;;;;;;5078911;28;20044;-36
2022/08/18 09:42:25;;;;;;;4.22;1.30;;;22.40;99.90;;;;;;5082658;28;20036;-36
2022/08/18 09:44:51;;;;;;;3.25;1.20;;;22.40;99.90;;;;;;5084001;28;20064;-36
2022/08/18 09:47:19;;;;;;;3.95;1.58;;;22.40;99.90;;;;;;5083881;28;20610;-36
2022/08/18 09:49:52;;;;;;;3.42;1.23;;;22.50;99.90;;;;;;5082757;28;20033;-36
2022/08/18 09:52:21;;;;;;;3.85;1.13;;;22.60;99.90;;;;;;5079337;28;20051;-36
2022/08/18 09:55:04;;;;;;;4.28;1.35;;;22.90;99.90;;;;;;5081264;28;20055;-36
2022/08/18 09:57:31;;;;;;;3.63;1.20;;;23.30;99.90;;;;;;5080211;28;20040;-36
2022/08/18 10:00:03;;;;;;;3.97;0.98;;;23.50;99.90;;;;;;5082763;28;20036;-35
2022/08/18 10:02:28;;;;;;;2.00;1.00;;;23.70;99.90;;;;;;5081593;28;20040;-36
2022/08/18 10:05:16;;;;;;;3.35;0.90;;;23.60;99.90;;;;;;5079183;28;20048;-35
2022/08/18 10:08:02;;;;;;;2.17;0.73;;;23.40;99.90;;;;;;5084478;28;20119;-36
2022/08/18 10:10:43;;;;;;;4.05;0.80;;;23.30;99.90;;;;;;5078400;28;20449;-36
2022/08/18 10:13:40;;;;;;;3.10;0.85;;;23.20;99.90;;;;;;5085738;28;20040;-36
2022/08/18 10:16:14;;;;;;;1.95;0.90;;;23.10;99.90;;;;;;5072606;28;20044;-36
2022/08/18 10:18:51;;;;;;;1.23;0.73;;;23.10;99.90;;;;;;5078173;28;20508;-36
2022/08/18 10:21:27;;;;;;;2.10;0.80;;;23.20;99.90;;;;;;5081930;28;20556;-36
2022/08/18 10:24:04;;;;;;;1.27;0.70;;;23.50;99.90;;;;;;5076283;28;20055;-36
2022/08/18 10:26:29;;;;;;;1.08;0.45;;;23.70;99.90;;;;;;5076582;28;20508;-36
2022/08/18 10:29:06;;;;;;;1.27;0.57;;;23.90;99.90;;;;;;5078129;28;20036;-36
2022/08/18 10:31:54;;;;;;;0.80;0.52;;;24.00;99.90;;;;;;5082313;28;20044;-36
2022/08/18 10:34:48;;;;;;;3.80;0.60;;;24.10;99.90;;;;;;5078337;28;20500;-37
2022/08/18 10:37:38;;;;;;;1.40;0.70;;;24.10;99.90;;;;;;5085365;28;20055;-36
2022/08/18 10:40:13;;;;;;;1.88;0.60;;;24.20;99.50;;;;;;5070698;28;20060;-38
2022/08/18 10:42:57;;;;;;;1.73;0.60;;;24.20;99.90;;;;;;5081235;28;20059;-36
2022/08/18 10:45:29;;;;;;;0.85;0.45;;;24.20;99.20;;;;;;5079203;28;20032;-36
2022/08/18 10:48:04;;;;;;;1.15;0.60;;;24.20;99.10;;;;;;5084660;28;20045;-36
2022/08/18 10:51:08;;;;;;;3.60;0.60;;;24.20;99.20;;;;;;5082053;28;20037;-36
2022/08/18 10:53:50;;;;;;;1.58;0.43;;;24.20;97.80;;;;;;5073314;28;20044;-36
2022/08/18 10:56:44;;;;;;;2.75;0.70;;;24.30;98.40;;;;;;5078786;28;20048;-36
2022/08/18 10:59:39;;;;;;;0.80;0.52;;;24.70;98.10;;;;;;5080857;28;20047;-36
2022/08/18 11:02:37;;;;;;;1.13;0.50;;;24.80;94.90;;;;;;5084095;28;20067;-36
2022/08/18 11:05:06;;;;;;;1.23;0.43;;;24.90;94.70;;;;;;5082941;28;20654;-36
2022/08/18 11:07:34;;;;;;;2.25;0.73;;;24.90;95.60;;;;;;5081217;28;20039;-37
2022/08/18 11:10:00;;;;;;;1.00;0.60;;;24.90;95.10;;;;;;5089087;28;20036;-37
2022/08/18 11:13:16;;;;;;;0.90;0.60;;;24.80;94.80;;;;;;5082227;28;20051;-36
2022/08/18 11:16:14;;;;;;;3.22;0.75;;;24.70;95.10;;;;;;5007316;28;20049;-36
2022/08/18 11:18:47;;;;;;;2.97;0.60;;;24.50;96.40;;;;;;5051507;28;20050;-36
2022/08/18 11:21:39;;;;;;;1.33;0.50;;;24.30;96.80;;;;;;5081664;28;20117;-36
2022/08/18 11:24:25;;;;;;;1.47;0.70;;;24.20;95.90;;;;;;5085131;28;20579;-35
2022/08/18 11:27:03;;;;;;;1.55;0.55;;;24.10;95.50;;;;;;5080450;28;20035;-37
2022/08/18 11:29:35;;;;;;;1.42;0.65;;;24.00;96.20;;;;;;5080477;28;20044;-36
2022/08/18 11:32:27;;;;;;;1.65;1.05;;;23.90;96.60;;;;;;5084451;28;20150;-38
2022/08/18 11:34:58;;;;;;;3.28;0.80;;;23.90;97.00;;;;;;5084323;28;20417;-36
2022/08/18 11:37:42;;;;;;;1.42;0.68;;;23.70;97.20;;;;;;5075996;28;20137;-37
2022/08/18 11:40:18;;;;;;;1.77;0.77;;;23.70;97.70;;;;;;5081453;28;20575;-35
2022/08/18 11:43:13;;;;;;;2.97;0.88;;;23.70;97.50;;;;;;5079291;28;20530;-35
2022/08/18 11:45:51;;;;;;;2.95;0.90;;;23.80;97.40;;;;;;5077556;28;20659;-37
2022/08/18 11:48:44;;;;;;;2.05;1.02;;;23.90;97.40;;;;;;5080297;28;20054;-36
2022/08/18 11:51:16;;;;;;;3.08;1.20;;;24.10;96.90;;;;;;5082568;28;20040;-36
2022/08/18 11:53:47;;;;;;;1.73;1.00;;;24.20;97.50;;;;;;5077670;28;20106;-36
2022/08/18 11:56:19;;;;;;;1.52;0.93;;;24.20;96.80;;;;;;5082484;28;20044;-36
2022/08/18 11:58:54;;;;;;;4.45;0.93;;;24.30;96.70;;;;;;5080374;28;20178;-36
2022/08/18 12:01:45;;;;;;;1.75;0.80;;;24.60;95.70;;;;;;5083857;28;20129;-36
2022/08/18 12:04:27;;;;;;;1.00;0.60;;;24.90;94.40;;;;;;5080229;28;20111;-36
2022/08/18 12:06:55;;;;;;;2.08;0.70;;;25.00;93.60;;;;;;5087837;28;20081;-36
2022/08/18 12:09:31;;;;;;;1.15;0.40;;;25.00;93.60;;;;;;5084083;28;20071;-35
2022/08/18 12:12:05;;;;;;;1.02;0.50;;;25.20;93.50;;;;;;5086021;28;20086;-35
2022/08/18 12:14:49;;;;;;;2.05;0.60;;;25.30;92.90;;;;;;5083736;28;20043;-36
2022/08/18 12:17:14;;;;;;;1.52;0.82;;;25.40;92.20;;;;;;5080050;28;20123;-36
2022/08/18 12:19:40;;;;;;;2.08;0.70;;;25.50;91.70;;;;;;5078203;28;20500;-36
2022/08/18 12:22:17;;;;;;;2.40;0.88;;;25.50;91.10;;;;;;5078178;28;20063;-36
2022/08/18 12:24:45;;;;;;;1.38;0.70;;;25.70;90.70;;;;;;5082473;28;20032;-36
2022/08/18 12:27:14;;;;;;;2.55;0.70;;;25.80;90.40;;;;;;5080186;28;20040;-36
2022/08/18 12:29:40;;;;;;;1.35;0.60;;;25.90;90.40;;;;;;5079936;28;20058;-36
2022/08/18 12:32:06;;;;;;;2.13;0.68;;;26.10;90.30;;;;;;5079683;28;20246;-36
2022/08/18 12:34:32;;;;;;;2.33;0.88;;;26.40;90.10;;;;;;5086673;28;20502;-36
2022/08/18 12:37:01;;;;;;;2.70;0.90;;;26.70;89.00;;;;;;5085236;28;20075;-39
2022/08/18 12:39:28;;;;;;;2.95;0.80;;;26.80;87.50;;;;;;5076642;28;20051;-36
2022/08/18 12:41:55;;;;;;;3.15;1.00;;;26.80;86.90;;;;;;5078197;28;20037;-36
2022/08/18 12:44:21;;;;;;;1.38;0.75;;;26.90;86.90;;;;;;5088273;28;20134;-36
2022/08/18 12:46:47;;;;;;;1.48;0.68;;;27.00;86.20;;;;;;5077472;28;20549;-37
2022/08/18 12:49:22;;;;;;;3.92;0.70;;;27.20;85.70;;;;;;5080927;28;20109;-36
2022/08/18 12:51:49;;;;;;;1.80;0.70;;;27.30;84.10;;;;;;5083731;28;20052;-36
2022/08/18 12:54:14;;;;;;;3.25;0.70;;;27.20;84.30;;;;;;5079576;28;20462;-36
2022/08/18 12:56:41;;;;;;;1.52;0.68;;;27.20;83.50;;;;;;5081249;28;20127;-37
2022/08/18 12:59:09;;;;;;;2.67;0.75;;;27.30;82.60;;;;;;5072999;28;20072;-36
2022/08/18 13:01:37;;;;;;;1.70;0.65;;;27.40;82.40;;;;;;5077903;28;20042;-36
2022/08/18 13:04:03;;;;;;;1.30;0.68;;;27.50;80.70;;;;;;5085621;28;20048;-37
2022/08/18 13:06:32;;;;;;;2.08;0.70;;;27.70;79.80;;;;;;5077658;28;20035;-37
2022/08/18 13:08:58;;;;;;;1.90;0.88;;;27.80;78.30;;;;;;5077493;28;20060;-37
2022/08/18 13:11:23;;;;;;;1.33;0.55;;;27.80;77.80;;;;;;5078703;28;20041;-37
2022/08/18 13:13:51;;;;;;;1.35;0.50;;;27.90;76.50;;;;;;5079331;28;20118;-37
2022/08/18 13:16:17;;;;;;;1.25;0.60;;;28.00;76.00;;;;;;5081187;28;20036;-38
2022/08/18 13:18:44;;;;;;;1.65;0.63;;;28.20;75.00;;;;;;5084575;28;20036;-37
2022/08/18 13:21:11;;;;;;;1.98;0.60;;;28.40;73.60;;;;;;5079626;28;20036;-38
2022/08/18 13:23:38;;;;;;;0.90;0.50;;;28.60;72.30;;;;;;5085852;28;20072;-37
2022/08/18 13:26:08;;;;;;;2.08;0.60;;;28.80;70.70;;;;;;5083341;28;20493;-37
2022/08/18 13:28:35;;;;;;;1.02;0.50;;;29.20;68.90;;;;;;5081527;28;20109;-37
2022/08/18 13:31:01;;;;;;;1.70;0.50;;;29.70;64.70;;;;;;5076839;28;20037;-38